createdAt,value
2023-02-24T00:03:36.876Z,51.52
2023-02-24T00:08:33.686Z,51.68
2023-02-24T00:13:30.996Z,51.93
2023-02-24T00:18:27.857Z,52.18
2023-02-24T00:23:25.433Z,52.20
2023-02-24T00:28:22.194Z,52.19
2023-02-24T00:33:22.930Z,52.21
2023-02-24T00:38:19.975Z,52.56
2023-02-24T00:43:17.617Z,52.54
2023-02-24T00:48:15.276Z,52.83
2023-02-24T00:53:12.191Z,52.53
2023-02-24T00:58:09.251Z,52.75
2023-02-24T01:03:07.225Z,52.86
2023-02-24T01:08:04.485Z,53.17
2023-02-24T01:13:02.003Z,53.52
2023-02-24T01:17:58.846Z,54.11
2023-02-24T01:22:57.337Z,54.84
2023-02-24T01:27:54.477Z,55.15
2023-02-24T01:32:51.503Z,55.97
2023-02-24T01:37:48.770Z,56.54
2023-02-24T01:42:48.823Z,56.96
2023-02-24T01:47:47.317Z,57.65
2023-02-24T01:52:47.695Z,57.56
2023-02-24T01:57:45.613Z,58.44
2023-02-24T02:02:50.883Z,58.21
2023-02-24T02:07:50.111Z,57.82
2023-02-24T02:12:47.629Z,56.95
2023-02-24T02:17:59.375Z,56.92
2023-02-24T02:23:18.020Z,57.13
2023-02-24T02:28:53.720Z,56.87
2023-02-24T02:34:11.985Z,57.06
2023-02-24T02:39:16.432Z,56.67
2023-02-24T02:44:19.939Z,56.84
2023-02-24T02:49:23.519Z,56.88
2023-02-24T02:54:27.402Z,56.79
2023-02-24T02:59:27.689Z,56.58
2023-02-24T03:04:26.496Z,56.83
2023-02-24T03:09:28.855Z,56.75
2023-02-24T03:14:29.270Z,56.71
2023-02-24T03:19:36.703Z,55.98
2023-02-24T03:24:38.240Z,55.90
2023-02-24T03:29:44.326Z,55.51
2023-02-24T03:34:50.643Z,55.33
2023-02-24T03:39:50.730Z,54.90
2023-02-24T03:44:51.757Z,55.25
2023-02-24T03:49:50.108Z,55.71
2023-02-24T03:55:08.949Z,56.79
2023-02-24T04:00:21.853Z,57.21
2023-02-24T04:05:26.940Z,57.02
2023-02-24T04:10:34.014Z,57.53
2023-02-24T04:15:39.744Z,57.40
2023-02-24T04:20:40.442Z,57.68
2023-02-24T04:25:42.999Z,57.76
2023-02-24T04:30:42.194Z,57.50
2023-02-24T04:35:41.086Z,57.31
2023-02-24T04:40:40.286Z,57.44
2023-02-24T04:45:39.483Z,57.20
2023-02-24T04:50:37.779Z,57.18
2023-02-24T04:55:39.457Z,57.16
2023-02-24T05:00:39.738Z,57.46
2023-02-24T05:05:36.801Z,57.55
2023-02-24T05:10:39.823Z,57.67
2023-02-24T05:15:41.402Z,57.19
2023-02-24T05:21:01.644Z,57.09
2023-02-24T05:26:00.050Z,57.85
2023-02-24T05:31:05.382Z,57.23
2023-02-24T05:36:05.699Z,57.36
2023-02-24T05:41:07.010Z,56.84
2023-02-24T05:46:04.379Z,56.38
2023-02-24T05:51:04.285Z,56.20
2023-02-24T05:56:05.027Z,55.87
2023-02-24T06:01:15.648Z,55.50
2023-02-24T06:06:12.874Z,55.27
2023-02-24T06:11:10.158Z,55.11
2023-02-24T06:16:12.165Z,54.61
2023-02-24T06:21:11.892Z,54.25
2023-02-24T06:26:12.434Z,54.06
2023-02-24T06:31:10.419Z,53.42
2023-02-24T06:36:08.271Z,53.18
2023-02-24T06:41:10.249Z,52.91
2023-02-24T06:46:11.934Z,52.94
2023-02-24T06:51:19.923Z,52.75
2023-02-24T06:56:19.297Z,52.94
2023-02-24T07:01:19.926Z,52.67
2023-02-24T07:06:23.856Z,52.50
2023-02-24T07:11:21.503Z,52.37
2023-02-24T07:16:24.525Z,52.08
2023-02-24T07:21:23.289Z,52.44
2023-02-24T07:26:22.586Z,51.80
2023-02-24T07:31:22.297Z,51.73
2023-02-24T07:36:22.551Z,51.09
2023-02-24T07:41:22.311Z,50.98
2023-02-24T07:46:23.888Z,50.84
2023-02-24T07:51:36.428Z,50.70
2023-02-24T07:56:33.488Z,50.73
2023-02-24T08:01:50.322Z,50.39
2023-02-24T08:06:50.808Z,50.04
2023-02-24T08:11:51.641Z,49.40
2023-02-24T08:16:51.397Z,49.23
2023-02-24T08:21:50.151Z,48.89
2023-02-24T08:27:03.688Z,48.31
2023-02-24T08:32:01.573Z,48.28
2023-02-24T08:36:58.789Z,47.84
2023-02-24T08:41:56.864Z,47.86
2023-02-24T08:46:54.562Z,47.53
2023-02-24T08:51:53.022Z,47.31
2023-02-24T08:56:55.225Z,47.09
2023-02-24T09:02:10.158Z,46.85
2023-02-24T09:07:14.776Z,46.83
2023-02-24T09:12:21.165Z,46.79
2023-02-24T09:17:20.485Z,46.93
2023-02-24T09:22:30.837Z,47.07
2023-02-24T09:27:28.670Z,47.63
2023-02-24T09:32:34.696Z,47.76
2023-02-24T09:37:45.474Z,47.98
2023-02-24T09:42:57.701Z,49.86
2023-02-24T09:47:57.848Z,50.97
2023-02-24T09:53:16.206Z,51.96
2023-02-24T09:58:29.387Z,52.92
2023-02-24T10:03:47.343Z,52.98
2023-02-24T10:08:51.567Z,54.20
2023-02-24T10:14:03.423Z,54.12
2023-02-24T10:19:14.474Z,54.58
2023-02-24T10:24:22.377Z,55.08
2023-02-24T10:29:35.424Z,55.27
2023-02-24T10:34:33.607Z,55.57
2023-02-24T10:39:32.795Z,55.82
2023-02-24T10:44:35.464Z,56.08
2023-02-24T10:49:42.409Z,56.74
2023-02-24T10:55:04.442Z,56.81
2023-02-24T11:00:19.650Z,57.73
2023-02-24T11:05:37.393Z,57.88
2023-02-24T11:10:52.395Z,58.17
2023-02-24T11:16:12.466Z,58.03
2023-02-24T11:21:12.386Z,57.55
2023-02-24T11:26:16.511Z,57.56
2023-02-24T11:31:28.021Z,57.41
2023-02-24T11:36:33.332Z,57.50
2023-02-24T11:41:36.317Z,57.25
2023-02-24T11:46:41.120Z,56.83
2023-02-24T11:51:38.394Z,56.20
2023-02-24T11:56:41.664Z,55.82
2023-02-24T12:01:43.800Z,55.74
2023-02-24T12:06:52.990Z,55.46
2023-02-24T12:11:56.866Z,55.00
2023-02-24T12:17:03.325Z,54.38
2023-02-24T12:22:14.334Z,54.51
2023-02-24T12:27:25.967Z,54.12
2023-02-24T12:32:36.282Z,53.69
2023-02-24T12:37:54.023Z,53.52
2023-02-24T12:43:03.734Z,53.61
2023-02-24T12:48:11.806Z,53.52
2023-02-24T12:53:18.216Z,53.40
2023-02-24T12:58:21.794Z,53.30
2023-02-24T13:03:35.611Z,53.22
2023-02-24T13:08:44.705Z,53.26
2023-02-24T13:13:50.099Z,53.31
2023-02-24T13:18:46.761Z,53.42
2023-02-24T13:23:53.301Z,53.46
2023-02-24T13:28:59.728Z,53.23
2023-02-24T13:33:56.710Z,53.31
2023-02-24T13:39:08.146Z,53.17
2023-02-24T13:44:26.662Z,53.40
2023-02-24T13:49:32.622Z,53.62
2023-02-24T13:54:53.102Z,53.40
2023-02-24T14:00:09.573Z,54.08
2023-02-24T14:05:13.552Z,54.08
2023-02-24T14:10:18.499Z,54.28
2023-02-24T14:15:20.502Z,54.53
2023-02-24T14:20:23.284Z,55.25
2023-02-24T14:25:22.750Z,55.78
2023-02-24T14:30:28.095Z,56.03
2023-02-24T14:35:33.555Z,56.53
2023-02-24T14:40:30.419Z,56.39
2023-02-24T14:45:30.233Z,57.20
2023-02-24T14:50:30.663Z,57.29
2023-02-24T14:55:31.427Z,57.89
2023-02-24T15:00:34.647Z,58.06
2023-02-24T15:05:32.124Z,58.31
2023-02-24T15:10:31.300Z,58.40
2023-02-24T15:15:34.603Z,58.48
2023-02-24T15:20:35.614Z,58.87
2023-02-24T15:25:43.260Z,59.34
2023-02-24T15:30:58.273Z,59.74
2023-02-24T15:35:58.876Z,60.07
2023-02-24T15:40:59.044Z,60.34
2023-02-24T15:45:56.815Z,61.00
2023-02-24T15:50:54.717Z,61.17
2023-02-24T15:55:53.857Z,61.64
2023-02-24T16:01:00.438Z,62.04
2023-02-24T16:05:58.740Z,61.74
2023-02-24T16:10:55.839Z,61.53
2023-02-24T16:15:53.823Z,61.84
2023-02-24T16:20:53.742Z,62.11
2023-02-24T16:25:56.461Z,61.97
2023-02-24T16:30:54.128Z,62.27
2023-02-24T16:35:52.851Z,61.90
2023-02-24T16:40:50.402Z,62.19
2023-02-24T16:45:47.601Z,62.19
2023-02-24T16:50:44.729Z,62.07
2023-02-24T16:55:43.028Z,62.38
2023-02-24T17:00:41.634Z,62.88
2023-02-24T17:05:38.615Z,62.67
2023-02-24T17:10:38.543Z,63.22
2023-02-24T17:15:36.096Z,63.39
2023-02-24T17:20:34.077Z,63.62
2023-02-24T17:25:31.977Z,63.93
2023-02-24T17:30:32.716Z,64.21
2023-02-24T17:35:30.651Z,64.13
2023-02-24T17:40:27.990Z,64.28
2023-02-24T17:45:25.276Z,64.32
2023-02-24T17:50:22.288Z,64.17
2023-02-24T17:55:21.779Z,64.34
2023-02-24T18:00:18.911Z,64.52
2023-02-24T18:05:15.996Z,64.98
2023-02-24T18:10:13.258Z,64.83
2023-02-24T18:15:11.770Z,64.76
2023-02-24T18:20:11.692Z,64.89
2023-02-24T18:25:10.399Z,65.15
2023-02-24T18:30:09.573Z,65.05
2023-02-24T18:35:08.709Z,65.17
2023-02-24T18:40:07.300Z,65.44
2023-02-24T18:45:04.945Z,65.27
2023-02-24T18:50:01.976Z,65.62
2023-02-24T18:54:59.580Z,65.83
2023-02-24T18:59:56.672Z,65.82
2023-02-24T19:04:54.751Z,66.12
2023-02-24T19:10:01.394Z,66.23
2023-02-24T19:14:58.251Z,66.18
2023-02-24T19:19:55.074Z,66.44
2023-02-24T19:24:51.860Z,66.22
2023-02-24T19:29:49.841Z,66.32
2023-02-24T19:34:47.725Z,66.46
2023-02-24T19:39:44.768Z,66.52
2023-02-24T19:44:41.651Z,66.79
2023-02-24T19:49:42.136Z,66.93
2023-02-24T19:54:39.213Z,67.01
2023-02-24T19:59:36.150Z,67.10
2023-02-24T20:04:33.727Z,66.96
2023-02-24T20:09:32.234Z,67.14
2023-02-24T20:14:32.613Z,66.87
2023-02-24T20:19:33.784Z,67.06
2023-02-24T20:24:34.705Z,67.29
2023-02-24T20:29:35.274Z,67.41
2023-02-24T20:34:41.253Z,67.49
2023-02-24T20:39:39.308Z,67.84
2023-02-24T20:44:36.242Z,67.64
2023-02-24T20:49:33.336Z,67.46
2023-02-24T20:54:30.404Z,67.48
2023-02-24T20:59:28.045Z,67.49
2023-02-24T21:04:24.972Z,67.59
2023-02-24T21:09:21.974Z,67.46
2023-02-24T21:14:19.651Z,67.61
2023-02-24T21:19:19.655Z,67.71
2023-02-24T21:24:17.482Z,67.68
2023-02-24T21:29:14.425Z,67.89
2023-02-24T21:34:11.494Z,67.98
2023-02-24T21:39:13.865Z,68.29
2023-02-24T21:44:11.989Z,68.79
2023-02-24T21:49:13.706Z,68.19
2023-02-24T21:54:12.166Z,68.10
2023-02-24T21:59:10.603Z,68.10
2023-02-24T22:04:09.996Z,68.08
2023-02-24T22:09:08.718Z,67.95
2023-02-24T22:14:08.248Z,68.15
2023-02-24T22:19:06.055Z,68.42
2023-02-24T22:24:03.836Z,67.83
2023-02-24T22:29:01.662Z,68.18
2023-02-24T22:34:00.251Z,67.81
2023-02-24T22:38:59.350Z,68.28
2023-02-24T22:43:56.673Z,68.56
2023-02-24T22:48:53.837Z,68.94
2023-02-24T22:53:52.233Z,68.63
2023-02-24T22:58:49.405Z,69.13
2023-02-24T23:03:46.383Z,68.86
2023-02-24T23:08:46.162Z,69.12
2023-02-24T23:13:47.290Z,68.66
2023-02-24T23:18:47.946Z,68.94
2023-02-24T23:23:46.239Z,68.61
2023-02-24T23:28:44.276Z,67.61
2023-02-24T23:33:43.398Z,68.03
2023-02-24T23:38:40.500Z,68.23
2023-02-24T23:43:38.268Z,68.20
2023-02-24T23:48:36.546Z,68.85
2023-02-24T23:53:37.077Z,70.19
2023-02-24T23:58:34.106Z,70.52
